Arlington, Georgia
Current Conditions -  °F | °C
As of 5:15 PM on Monday 26 Jan 2015 (Local Time) from KBIJ Reporting Station
Scattered Clouds Scattered Clouds  
Wind Chill: 50°   Ceiling: Unl
Heat Index: 50°   Visibility: 10mi
Dew Point: 37°   Wind: 8mph
Humidity: 62%   Direction: 290°WNW
Pressure: 29.94"   Gusts: NA
Location:  31.44°N, 84.72°W
Report Text: KBIJ 262215Z AUTO 29007KT 10SM SCT036 10/03 A2994 RMK AO2
Loading
Personal Weather Stations






























Interactive Weather Map New forecast layout! Learn more

10-Day Weather Forecast

Advertisements
Track Severe Weather on mobile